sensor_id;sensor_type;location;lat;lon;timestamp;pressure;altitude;pressure_sealevel;temperature;humidity
55044;BME280;54902;50.420;18.854;2022-09-17T00:00:04;100682.13;;;11.17;73.23
55044;BME280;54902;50.420;18.854;2022-09-17T00:00:20;100676.78;;;11.15;73.35
55044;BME280;54902;50.420;18.854;2022-09-17T00:00:37;100686.76;;;11.16;73.30
55044;BME280;54902;50.420;18.854;2022-09-17T00:00:53;100690.51;;;11.15;73.33
55044;BME280;54902;50.420;18.854;2022-09-17T00:01:15;100683.16;;;11.16;73.18
55044;BME280;54902;50.420;18.854;2022-09-17T00:01:31;100683.27;;;11.14;73.41
55044;BME280;54902;50.420;18.854;2022-09-17T00:01:47;100680.54;;;11.14;73.41
55044;BME280;54902;50.420;18.854;2022-09-17T00:02:03;100681.57;;;11.13;73.24
55044;BME280;54902;50.420;18.854;2022-09-17T00:02:21;100686.02;;;11.14;73.32
55044;BME280;54902;50.420;18.854;2022-09-17T00:02:40;100694.99;;;11.16;73.31
55044;BME280;54902;50.420;18.854;2022-09-17T00:03:02;100682.73;;;11.11;73.36
55044;BME280;54902;50.420;18.854;2022-09-17T00:03:18;100680.84;;;11.11;73.41
55044;BME280;54902;50.420;18.854;2022-09-17T00:03:34;100684.46;;;11.12;73.26
55044;BME280;54902;50.420;18.854;2022-09-17T00:03:52;100683.73;;;11.10;73.30
55044;BME280;54902;50.420;18.854;2022-09-17T00:04:10;100688.36;;;11.09;73.28
55044;BME280;54902;50.420;18.854;2022-09-17T00:04:26;100681.84;;;11.10;73.23
55044;BME280;54902;50.420;18.854;2022-09-17T00:04:42;100686.32;;;11.11;73.39
55044;BME280;54902;50.420;18.854;2022-09-17T00:04:58;100687.48;;;11.09;73.44
55044;BME280;54902;50.420;18.854;2022-09-17T00:05:14;100689.37;;;11.08;73.42
55044;BME280;54902;50.420;18.854;2022-09-17T00:05:30;100683.73;;;11.10;73.30
55044;BME280;54902;50.420;18.854;2022-09-17T00:05:46;100686.62;;;11.08;73.24
55044;BME280;54902;50.420;18.854;2022-09-17T00:06:08;100687.48;;;11.09;73.35
55044;BME280;54902;50.420;18.854;2022-09-17T00:06:25;100688.51;;;11.08;73.43
55044;BME280;54902;50.420;18.854;2022-09-17T00:06:41;100696.73;;;11.08;73.38
55044;BME280;54902;50.420;18.854;2022-09-17T00:06:57;100690.37;;;11.07;73.30
55044;BME280;54902;50.420;18.854;2022-09-17T00:07:13;100686.62;;;11.08;73.25
55044;BME280;54902;50.420;18.854;2022-09-17T00:07:30;100689.52;;;11.07;73.37
55044;BME280;54902;50.420;18.854;2022-09-17T00:07:46;100685.88;;;11.06;73.37
55044;BME280;54902;50.420;18.854;2022-09-17T00:08:04;100694.26;;;11.05;73.40
55044;BME280;54902;50.420;18.854;2022-09-17T00:08:20;100697.89;;;11.05;73.60
55044;BME280;54902;50.420;18.854;2022-09-17T00:08:38;100694.11;;;11.06;73.18
55044;BME280;54902;50.420;18.854;2022-09-17T00:08:55;100690.37;;;11.07;73.57
55044;BME280;54902;50.420;18.854;2022-09-17T00:09:11;100695.15;;;11.05;73.54
55044;BME280;54902;50.420;18.854;2022-09-17T00:09:27;100700.48;;;11.07;73.41
55044;BME280;54902;50.420;18.854;2022-09-17T00:09:43;100693.26;;;11.06;73.46
55044;BME280;54902;50.420;18.854;2022-09-17T00:09:59;100696.85;;;11.06;73.34
55044;BME280;54902;50.420;18.854;2022-09-17T00:10:16;100690.66;;;11.04;73.35
55044;BME280;54902;50.420;18.854;2022-09-17T00:10:37;100686.91;;;11.05;73.52
55044;BME280;54902;50.420;18.854;2022-09-17T00:10:54;100693.55;;;11.03;73.46
55044;BME280;54902;50.420;18.854;2022-09-17T00:11:20;100696.30;;;11.03;73.31
55044;BME280;54902;50.420;18.854;2022-09-17T00:11:38;100692.66;;;11.02;73.54
55044;BME280;54902;50.420;18.854;2022-09-17T00:11:55;100691.81;;;11.02;73.48
55044;BME280;54902;50.420;18.854;2022-09-17T00:12:12;100695.27;;;11.04;73.50
55044;BME280;54902;50.420;18.854;2022-09-17T00:12:28;100688.06;;;11.03;73.45
55044;BME280;54902;50.420;18.854;2022-09-17T00:12:46;100692.66;;;11.02;73.48
55044;BME280;54902;50.420;18.854;2022-09-17T00:13:03;100684.28;;;11.04;73.58
55044;BME280;54902;50.420;18.854;2022-09-17T00:13:19;100687.18;;;11.02;73.62
55044;BME280;54902;50.420;18.854;2022-09-17T00:13:35;100695.27;;;11.04;73.39
55044;BME280;54902;50.420;18.854;2022-09-17T00:13:52;100695.41;;;11.02;73.42
55044;BME280;54902;50.420;18.854;2022-09-17T00:14:13;100687.18;;;11.02;73.47
55044;BME280;54902;50.420;18.854;2022-09-17T00:14:29;100691.81;;;11.02;73.43
55044;BME280;54902;50.420;18.854;2022-09-17T00:14:45;100687.03;;;11.04;73.40
55044;BME280;54902;50.420;18.854;2022-09-17T00:15:01;100690.95;;;11.02;73.50
55044;BME280;54902;50.420;18.854;2022-09-17T00:15:17;100687.48;;;11.00;73.63
55044;BME280;54902;50.420;18.854;2022-09-17T00:15:41;100695.55;;;11.01;73.53
55044;BME280;54902;50.420;18.854;2022-09-17T00:15:58;100697.45;;;11.01;73.49
55044;BME280;54902;50.420;18.854;2022-09-17T00:16:46;100691.07;;;11.00;73.61
55044;BME280;54902;50.420;18.854;2022-09-17T00:17:03;100692.10;;;10.99;73.63
55044;BME280;54902;50.420;18.854;2022-09-17T00:17:19;100687.48;;;11.00;73.57
55044;BME280;54902;50.420;18.854;2022-09-17T00:17:35;100695.00;;;10.98;73.58
55044;BME280;54902;50.420;18.854;2022-09-17T00:17:54;100702.94;;;11.01;73.57
55044;BME280;54902;50.420;18.854;2022-09-17T00:18:13;100696.70;;;10.99;73.54
55044;BME280;54902;50.420;18.854;2022-09-17T00:18:29;100699.30;;;11.00;73.55
55044;BME280;54902;50.420;18.854;2022-09-17T00:18:46;100695.71;;;11.00;73.59
55044;BME280;54902;50.420;18.854;2022-09-17T00:19:03;100691.21;;;10.99;73.56
55044;BME280;54902;50.420;18.854;2022-09-17T00:19:21;100687.62;;;10.98;73.45
55044;BME280;54902;50.420;18.854;2022-09-17T00:19:40;100692.96;;;11.00;73.62
55044;BME280;54902;50.420;18.854;2022-09-17T00:19:56;100698.45;;;11.00;73.46
55044;BME280;54902;50.420;18.854;2022-09-17T00:20:12;100701.05;;;11.01;73.57
55044;BME280;54902;50.420;18.854;2022-09-17T00:20:28;100690.37;;;10.98;73.58
55044;BME280;54902;50.420;18.854;2022-09-17T00:20:45;100684.88;;;10.98;73.42
55044;BME280;54902;50.420;18.854;2022-09-17T00:21:02;100684.02;;;10.98;73.63
55044;BME280;54902;50.420;18.854;2022-09-17T00:21:19;100683.13;;;10.97;73.58
55044;BME280;54902;50.420;18.854;2022-09-17T00:21:35;100691.21;;;10.99;73.50
55044;BME280;54902;50.420;18.854;2022-09-17T00:21:51;100693.97;;;10.99;73.75
55044;BME280;54902;50.420;18.854;2022-09-17T00:22:07;100686.77;;;10.98;73.66
55044;BME280;54902;50.420;18.854;2022-09-17T00:22:23;100693.26;;;10.97;73.58
55044;BME280;54902;50.420;18.854;2022-09-17T00:22:39;100688.63;;;10.97;73.61
55044;BME280;54902;50.420;18.854;2022-09-17T00:22:55;100690.37;;;10.98;73.58
55044;BME280;54902;50.420;18.854;2022-09-17T00:23:13;100683.44;;;10.94;73.66
55044;BME280;54902;50.420;18.854;2022-09-17T00:23:29;100695.12;;;10.96;73.67
55044;BME280;54902;50.420;18.854;2022-09-17T00:23:45;100674.91;;;10.88;73.58
55044;BME280;54902;50.420;18.854;2022-09-17T00:24:03;100693.26;;;10.97;73.51
55044;BME280;54902;50.420;18.854;2022-09-17T00:24:20;100687.77;;;10.97;73.66
55044;BME280;54902;50.420;18.854;2022-09-17T00:24:37;100687.77;;;10.97;73.46
55044;BME280;54902;50.420;18.854;2022-09-17T00:24:53;100684.14;;;10.96;73.71
55044;BME280;54902;50.420;18.854;2022-09-17T00:25:09;100689.52;;;10.98;73.62
55044;BME280;54902;50.420;18.854;2022-09-17T00:25:25;100687.92;;;10.95;73.50
55044;BME280;54902;50.420;18.854;2022-09-17T00:25:43;100687.92;;;10.95;73.50
55044;BME280;54902;50.420;18.854;2022-09-17T00:26:04;100686.03;;;10.96;73.60
55044;BME280;54902;50.420;18.854;2022-09-17T00:26:21;100694.11;;;10.97;73.73
55044;BME280;54902;50.420;18.854;2022-09-17T00:26:37;100688.63;;;10.97;73.64
55044;BME280;54902;50.420;18.854;2022-09-17T00:26:53;100693.26;;;10.97;73.62
55044;BME280;54902;50.420;18.854;2022-09-17T00:27:09;100694.41;;;10.94;73.72
55044;BME280;54902;50.420;18.854;2022-09-17T00:27:25;100674.77;;;10.89;73.74
55044;BME280;54902;50.420;18.854;2022-09-17T00:27:41;100688.91;;;10.94;73.60
55044;BME280;54902;50.420;18.854;2022-09-17T00:27:57;100690.66;;;10.95;73.53
55044;BME280;54902;50.420;18.854;2022-09-17T00:28:13;100694.11;;;10.97;73.53
55044;BME280;54902;50.420;18.854;2022-09-17T00:28:29;100691.52;;;10.96;73.66
55044;BME280;54902;50.420;18.854;2022-09-17T00:28:49;100685.32;;;10.94;73.48
55044;BME280;54902;50.420;18.854;2022-09-17T00:29:05;100686.03;;;10.96;73.63
55044;BME280;54902;50.420;18.854;2022-09-17T00:29:21;100698.74;;;10.97;73.72
55044;BME280;54902;50.420;18.854;2022-09-17T00:29:37;100693.26;;;10.97;73.68
55044;BME280;54902;50.420;18.854;2022-09-17T00:29:53;100695.00;;;10.98;73.66
55044;BME280;54902;50.420;18.854;2022-09-17T00:30:11;100682.44;;;10.95;73.69
55044;BME280;54902;50.420;18.854;2022-09-17T00:30:27;100691.52;;;10.96;73.62
55044;BME280;54902;50.420;18.854;2022-09-17T00:30:44;100688.77;;;10.96;73.64
55044;BME280;54902;50.420;18.854;2022-09-17T00:31:06;100691.52;;;10.96;73.62
55044;BME280;54902;50.420;18.854;2022-09-17T00:31:23;100693.40;;;10.95;73.82
55044;BME280;54902;50.420;18.854;2022-09-17T00:31:40;100688.63;;;10.97;73.57
55044;BME280;54902;50.420;18.854;2022-09-17T00:31:56;100685.43;;;10.92;73.83
55044;BME280;54902;50.420;18.854;2022-09-17T00:32:12;100692.52;;;10.95;73.62
55044;BME280;54902;50.420;18.854;2022-09-17T00:32:29;100691.52;;;10.96;73.71
55044;BME280;54902;50.420;18.854;2022-09-17T00:32:44;100685.17;;;10.95;73.76
55044;BME280;54902;50.420;18.854;2022-09-17T00:33:00;100689.77;;;10.95;73.74
55044;BME280;54902;50.420;18.854;2022-09-17T00:33:17;100698.74;;;10.97;73.74
55044;BME280;54902;50.420;18.854;2022-09-17T00:33:35;100694.26;;;10.96;73.74
55044;BME280;54902;50.420;18.854;2022-09-17T00:33:52;100697.74;;;10.98;73.69
55044;BME280;54902;50.420;18.854;2022-09-17T00:34:08;100696.00;;;10.97;73.71
55044;BME280;54902;50.420;18.854;2022-09-17T00:34:24;100696.85;;;10.97;73.74
55044;BME280;54902;50.420;18.854;2022-09-17T00:34:41;100688.77;;;10.96;73.80
55044;BME280;54902;50.420;18.854;2022-09-17T00:34:57;100695.00;;;10.98;73.74
55044;BME280;54902;50.420;18.854;2022-09-17T00:35:13;100688.77;;;10.96;73.54
55044;BME280;54902;50.420;18.854;2022-09-17T00:35:29;100694.11;;;10.97;73.61
55044;BME280;54902;50.420;18.854;2022-09-17T00:35:59;100695.00;;;10.98;73.72
55044;BME280;54902;50.420;18.854;2022-09-17T00:36:12;100696.00;;;10.97;73.77
55044;BME280;54902;50.420;18.854;2022-09-17T00:36:28;100697.00;;;10.96;73.81
55044;BME280;54902;50.420;18.854;2022-09-17T00:36:44;100696.00;;;10.97;73.69
55044;BME280;54902;50.420;18.854;2022-09-17T00:37:00;100692.37;;;10.96;73.67
55044;BME280;54902;50.420;18.854;2022-09-17T00:37:20;100691.37;;;10.97;73.62
55044;BME280;54902;50.420;18.854;2022-09-17T00:37:36;100700.48;;;10.98;73.68
55044;BME280;54902;50.420;18.854;2022-09-17T00:37:53;100696.30;;;10.94;73.81
55044;BME280;54902;50.420;18.854;2022-09-17T00:38:09;100698.74;;;10.97;73.62
55044;BME280;54902;50.420;18.854;2022-09-17T00:38:27;100688.91;;;10.94;73.53
55044;BME280;54902;50.420;18.854;2022-09-17T00:38:43;100691.52;;;10.96;73.51
55044;BME280;54902;50.420;18.854;2022-09-17T00:38:59;100697.00;;;10.96;73.72
55044;BME280;54902;50.420;18.854;2022-09-17T00:39:15;100692.52;;;10.95;73.63
55044;BME280;54902;50.420;18.854;2022-09-17T00:39:31;100703.34;;;10.96;73.66
55044;BME280;54902;50.420;18.854;2022-09-17T00:39:48;100697.15;;;10.94;73.61
55044;BME280;54902;50.420;18.854;2022-09-17T00:40:06;100705.23;;;10.96;73.68
55044;BME280;54902;50.420;18.854;2022-09-17T00:40:22;100699.04;;;10.94;73.61
55044;BME280;54902;50.420;18.854;2022-09-17T00:40:38;100696.16;;;10.95;73.59
55044;BME280;54902;50.420;18.854;2022-09-17T00:40:54;100691.81;;;10.93;73.72
55044;BME280;54902;50.420;18.854;2022-09-17T00:41:10;100707.98;;;10.96;73.65
55044;BME280;54902;50.420;18.854;2022-09-17T00:41:30;100695.27;;;10.95;73.63
55044;BME280;54902;50.420;18.854;2022-09-17T00:41:46;100696.30;;;10.94;73.67
55044;BME280;54902;50.420;18.854;2022-09-17T00:42:02;100710.02;;;10.94;73.63
55044;BME280;54902;50.420;18.854;2022-09-17T00:42:25;100699.04;;;10.94;73.56
55044;BME280;54902;50.420;18.854;2022-09-17T00:42:41;100708.13;;;10.94;73.63
55044;BME280;54902;50.420;18.854;2022-09-17T00:42:56;100690.06;;;10.92;73.56
55044;BME280;54902;50.420;18.854;2022-09-17T00:43:12;100698.29;;;10.92;73.61
55044;BME280;54902;50.420;18.854;2022-09-17T00:43:36;100699.29;;;10.91;73.71
55044;BME280;54902;50.420;18.854;2022-09-17T00:43:55;100703.05;;;10.90;73.64
55044;BME280;54902;50.420;18.854;2022-09-17T00:45:09;100696.70;;;10.89;73.82
55044;BME280;54902;50.420;18.854;2022-09-17T00:45:26;100688.48;;;10.89;73.78
55044;BME280;54902;50.420;18.854;2022-09-17T00:45:42;100695.84;;;10.89;73.73
55044;BME280;54902;50.420;18.854;2022-09-17T00:45:58;100698.45;;;10.90;73.70
55044;BME280;54902;50.420;18.854;2022-09-17T00:46:43;100692.37;;;10.87;73.82
55044;BME280;54902;50.420;18.854;2022-09-17T00:47:00;100694.96;;;10.88;73.78
55044;BME280;54902;50.420;18.854;2022-09-17T00:48:11;100691.65;;;10.85;73.79
55044;BME280;54902;50.420;18.854;2022-09-17T00:48:27;100694.25;;;10.86;73.76
55044;BME280;54902;50.420;18.854;2022-09-17T00:48:43;100690.61;;;10.86;73.74
55044;BME280;54902;50.420;18.854;2022-09-17T00:49:28;100694.41;;;10.85;73.81
55044;BME280;54902;50.420;18.854;2022-09-17T00:49:47;100696.11;;;10.86;73.86
55044;BME280;54902;50.420;18.854;2022-09-17T00:50:09;100698.14;;;10.84;73.69
55044;BME280;54902;50.420;18.854;2022-09-17T00:50:30;100688.17;;;10.83;73.80
55044;BME280;54902;50.420;18.854;2022-09-17T00:50:49;100688.91;;;10.85;73.92
55044;BME280;54902;50.420;18.854;2022-09-17T00:51:08;100695.40;;;10.84;73.63
55044;BME280;54902;50.420;18.854;2022-09-17T00:51:35;100701.74;;;10.84;73.67
55044;BME280;54902;50.420;18.854;2022-09-17T00:52:23;100689.17;;;10.82;73.76
55044;BME280;54902;50.420;18.854;2022-09-17T00:53:16;100693.66;;;10.83;73.91
55044;BME280;54902;50.420;18.854;2022-09-17T00:53:33;100693.80;;;10.81;73.77
55044;BME280;54902;50.420;18.854;2022-09-17T00:53:49;100693.80;;;10.81;73.77
55044;BME280;54902;50.420;18.854;2022-09-17T00:54:07;100691.91;;;10.82;73.73
55044;BME280;54902;50.420;18.854;2022-09-17T00:54:24;100694.66;;;10.82;73.86
55044;BME280;54902;50.420;18.854;2022-09-17T00:54:47;100689.17;;;10.82;73.71
55044;BME280;54902;50.420;18.854;2022-09-17T00:55:15;100690.92;;;10.83;73.72
55044;BME280;54902;50.420;18.854;2022-09-17T00:55:39;100689.47;;;10.79;73.83
55044;BME280;54902;50.420;18.854;2022-09-17T00:56:02;100695.84;;;10.79;73.94
55044;BME280;54902;50.420;18.854;2022-09-17T00:56:26;100689.47;;;10.79;73.70
55044;BME280;54902;50.420;18.854;2022-09-17T00:56:42;100697.40;;;10.82;73.98
55044;BME280;54902;50.420;18.854;2022-09-17T00:56:59;100689.17;;;10.82;73.88
55044;BME280;54902;50.420;18.854;2022-09-17T00:57:15;100692.06;;;10.80;73.77
55044;BME280;54902;50.420;18.854;2022-09-17T00:57:32;100697.55;;;10.80;73.82
55044;BME280;54902;50.420;18.854;2022-09-17T00:57:51;100688.32;;;10.81;73.79
55044;BME280;54902;50.420;18.854;2022-09-17T00:58:10;100687.46;;;10.81;73.81
55044;BME280;54902;50.420;18.854;2022-09-17T00:58:28;100684.72;;;10.81;73.71
55044;BME280;54902;50.420;18.854;2022-09-17T00:58:46;100686.44;;;10.82;73.66
55044;BME280;54902;50.420;18.854;2022-09-17T00:59:04;100681.98;;;10.81;73.69
55044;BME280;54902;50.420;18.854;2022-09-17T00:59:20;100687.46;;;10.81;73.78
55044;BME280;54902;50.420;18.854;2022-09-17T00:59:37;100685.73;;;10.80;73.75
55044;BME280;54902;50.420;18.854;2022-09-17T00:59:54;100685.73;;;10.80;73.83
55044;BME280;54902;50.420;18.854;2022-09-17T01:00:13;100690.06;;;10.82;73.73
55044;BME280;54902;50.420;18.854;2022-09-17T01:00:30;100683.69;;;10.82;73.85
55044;BME280;54902;50.420;18.854;2022-09-17T01:00:46;100686.44;;;10.82;73.85
55044;BME280;54902;50.420;18.854;2022-09-17T01:01:02;100680.09;;;10.81;73.75
55044;BME280;54902;50.420;18.854;2022-09-17T01:01:18;100686.44;;;10.82;73.91
55044;BME280;54902;50.420;18.854;2022-09-17T01:01:35;100689.17;;;10.82;73.69
55044;BME280;54902;50.420;18.854;2022-09-17T01:01:52;100683.69;;;10.82;73.69
55044;BME280;54902;50.420;18.854;2022-09-17T01:02:08;100686.44;;;10.82;73.66
55044;BME280;54902;50.420;18.854;2022-09-17T01:02:25;100683.69;;;10.82;73.82
55044;BME280;54902;50.420;18.854;2022-09-17T01:02:42;100682.84;;;10.81;73.89
55044;BME280;54902;50.420;18.854;2022-09-17T01:02:59;100682.84;;;10.81;73.91
55044;BME280;54902;50.420;18.854;2022-09-17T01:03:15;100686.32;;;10.83;73.76
55044;BME280;54902;50.420;18.854;2022-09-17T01:03:31;100686.44;;;10.82;73.69
55044;BME280;54902;50.420;18.854;2022-09-17T01:03:48;100683.69;;;10.82;73.81
55044;BME280;54902;50.420;18.854;2022-09-17T01:04:03;100690.92;;;10.83;73.87
55044;BME280;54902;50.420;18.854;2022-09-17T01:04:22;100688.32;;;10.81;73.93
55044;BME280;54902;50.420;18.854;2022-09-17T01:04:38;100686.59;;;10.80;73.86
55044;BME280;54902;50.420;18.854;2022-09-17T01:04:54;100684.58;;;10.82;73.84
55044;BME280;54902;50.420;18.854;2022-09-17T01:05:11;100687.17;;;10.84;73.90
55044;BME280;54902;50.420;18.854;2022-09-17T01:05:37;100683.69;;;10.82;73.86
55044;BME280;54902;50.420;18.854;2022-09-17T01:06:10;100679.95;;;10.83;73.92
55044;BME280;54902;50.420;18.854;2022-09-17T01:06:37;100682.84;;;10.81;73.94
55044;BME280;54902;50.420;18.854;2022-09-17T01:07:34;100682.84;;;10.81;74.00
55044;BME280;54902;50.420;18.854;2022-09-17T01:08:01;100676.63;;;10.79;74.05
55044;BME280;54902;50.420;18.854;2022-09-17T01:09:21;100678.20;;;10.82;74.02
55044;BME280;54902;50.420;18.854;2022-09-17T01:09:49;100675.34;;;10.83;73.89
55044;BME280;54902;50.420;18.854;2022-09-17T01:11:42;100670.42;;;10.87;73.98
55044;BME280;54902;50.420;18.854;2022-09-17T01:12:35;100674.77;;;10.89;74.03
55044;BME280;54902;50.420;18.854;2022-09-17T01:13:33;100664.63;;;10.90;74.11
55044;BME280;54902;50.420;18.854;2022-09-17T01:14:34;100667.26;;;10.91;73.95
55044;BME280;54902;50.420;18.854;2022-09-17T01:15:17;100661.90;;;10.90;74.01
55044;BME280;54902;50.420;18.854;2022-09-17T01:15:59;100671.60;;;10.94;74.02
55044;BME280;54902;50.420;18.854;2022-09-17T01:16:25;100668.71;;;10.95;74.15
55044;BME280;54902;50.420;18.854;2022-09-17T01:18:14;100669.27;;;10.99;73.96
55044;BME280;54902;50.420;18.854;2022-09-17T01:19:45;100663.52;;;11.02;74.01
55044;BME280;54902;50.420;18.854;2022-09-17T01:21:10;100655.14;;;11.03;73.98
55044;BME280;54902;50.420;18.854;2022-09-17T01:22:02;100654.98;;;11.04;73.91
55044;BME280;54902;50.420;18.854;2022-09-17T01:24:49;100657.29;;;11.09;74.21
55044;BME280;54902;50.420;18.854;2022-09-17T01:25:53;100653.55;;;11.10;73.94
55044;BME280;54902;50.420;18.854;2022-09-17T01:26:19;100653.55;;;11.10;73.99
55044;BME280;54902;50.420;18.854;2022-09-17T01:27:43;100652.09;;;11.15;74.20
55044;BME280;54902;50.420;18.854;2022-09-17T01:28:12;100660.32;;;11.15;74.23
55044;BME280;54902;50.420;18.854;2022-09-17T01:28:38;100661.06;;;11.17;74.09
55044;BME280;54902;50.420;18.854;2022-09-17T01:31:51;100647.34;;;11.17;74.00
55044;BME280;54902;50.420;18.854;2022-09-17T01:32:14;100660.61;;;11.22;73.93
55044;BME280;54902;50.420;18.854;2022-09-17T01:32:41;100653.38;;;11.21;74.06
55044;BME280;54902;50.420;18.854;2022-09-17T01:33:10;100649.63;;;11.22;73.98
55044;BME280;54902;50.420;18.854;2022-09-17T01:34:30;100649.33;;;11.25;73.98
55044;BME280;54902;50.420;18.854;2022-09-17T01:34:58;100655.70;;;11.25;74.00
55044;BME280;54902;50.420;18.854;2022-09-17T01:35:56;100651.07;;;11.26;74.08
55044;BME280;54902;50.420;18.854;2022-09-17T01:37:29;100655.41;;;11.28;74.00
55044;BME280;54902;50.420;18.854;2022-09-17T01:37:49;100651.96;;;11.26;74.00
55044;BME280;54902;50.420;18.854;2022-09-17T01:39:09;100646.47;;;11.26;73.91
55044;BME280;54902;50.420;18.854;2022-09-17T01:40:30;100656.15;;;11.30;74.02
55044;BME280;54902;50.420;18.854;2022-09-17T01:41:33;100655.10;;;11.31;73.82
55044;BME280;54902;50.420;18.854;2022-09-17T01:42:53;100644.28;;;11.30;73.86
55044;BME280;54902;50.420;18.854;2022-09-17T01:43:48;100657.85;;;11.31;73.86
55044;BME280;54902;50.420;18.854;2022-09-17T01:44:13;100654.09;;;11.32;73.82
55044;BME280;54902;50.420;18.854;2022-09-17T01:44:38;100649.61;;;11.31;73.99
55044;BME280;54902;50.420;18.854;2022-09-17T01:45:04;100661.48;;;11.32;74.03
55044;BME280;54902;50.420;18.854;2022-09-17T01:45:34;100650.50;;;11.32;73.92
55044;BME280;54902;50.420;18.854;2022-09-17T01:46:02;100653.25;;;11.32;73.95
55044;BME280;54902;50.420;18.854;2022-09-17T01:46:31;100653.95;;;11.34;73.83
55044;BME280;54902;50.420;18.854;2022-09-17T01:46:56;100656.85;;;11.32;73.93
55044;BME280;54902;50.420;18.854;2022-09-17T01:47:22;100648.61;;;11.32;73.88
55044;BME280;54902;50.420;18.854;2022-09-17T01:48:06;100648.46;;;11.34;73.82
55044;BME280;54902;50.420;18.854;2022-09-17T01:48:15;100649.61;;;11.31;73.87
55044;BME280;54902;50.420;18.854;2022-09-17T01:48:39;100652.24;;;11.33;73.83
55044;BME280;54902;50.420;18.854;2022-09-17T01:49:02;100646.75;;;11.33;73.89
55044;BME280;54902;50.420;18.854;2022-09-17T01:49:20;100640.38;;;11.32;74.05
55044;BME280;54902;50.420;18.854;2022-09-17T01:49:40;100644.13;;;11.31;73.80
55044;BME280;54902;50.420;18.854;2022-09-17T01:50:02;100653.09;;;11.33;73.88
55044;BME280;54902;50.420;18.854;2022-09-17T01:50:26;100641.26;;;11.33;73.78
55044;BME280;54902;50.420;18.854;2022-09-17T01:50:56;100647.60;;;11.33;73.81
55044;BME280;54902;50.420;18.854;2022-09-17T01:51:19;100642.12;;;11.33;73.86
55044;BME280;54902;50.420;18.854;2022-09-17T01:51:44;100646.75;;;11.33;73.80
55044;BME280;54902;50.420;18.854;2022-09-17T01:52:02;100644.87;;;11.33;73.88
55044;BME280;54902;50.420;18.854;2022-09-17T01:52:19;100645.87;;;11.32;74.00
55044;BME280;54902;50.420;18.854;2022-09-17T01:52:38;100649.35;;;11.34;73.74
55044;BME280;54902;50.420;18.854;2022-09-17T01:52:57;100641.26;;;11.33;74.04
55044;BME280;54902;50.420;18.854;2022-09-17T01:53:16;100646.45;;;11.36;73.77
55044;BME280;54902;50.420;18.854;2022-09-17T01:53:47;100646.45;;;11.36;73.87
55044;BME280;54902;50.420;18.854;2022-09-17T01:54:34;100647.60;;;11.33;73.91
55044;BME280;54902;50.420;18.854;2022-09-17T01:54:55;100643.12;;;11.32;73.84
55044;BME280;54902;50.420;18.854;2022-09-17T01:55:16;100651.94;;;11.36;73.96
55044;BME280;54902;50.420;18.854;2022-09-17T01:55:36;100651.05;;;11.35;73.92
55044;BME280;54902;50.420;18.854;2022-09-17T01:55:54;100638.36;;;11.34;73.82
55044;BME280;54902;50.420;18.854;2022-09-17T01:56:17;100641.81;;;11.36;73.96
55044;BME280;54902;50.420;18.854;2022-09-17T01:56:39;100642.12;;;11.33;73.73
55044;BME280;54902;50.420;18.854;2022-09-17T01:57:07;100640.07;;;11.35;74.04
55044;BME280;54902;50.420;18.854;2022-09-17T01:57:31;100632.88;;;11.34;73.88
55044;BME280;54902;50.420;18.854;2022-09-17T01:57:53;100631.99;;;11.34;73.82
55044;BME280;54902;50.420;18.854;2022-09-17T01:58:16;100641.11;;;11.34;73.81
55044;BME280;54902;50.420;18.854;2022-09-17T01:58:39;100639.22;;;11.35;73.91
55044;BME280;54902;50.420;18.854;2022-09-17T01:59:03;100645.56;;;11.35;73.81
55044;BME280;54902;50.420;18.854;2022-09-17T01:59:36;100644.87;;;11.33;73.89
55044;BME280;54902;50.420;18.854;2022-09-17T01:59:52;100652.80;;;11.36;73.94
55044;BME280;54902;50.420;18.854;2022-09-17T02:00:11;100647.60;;;11.33;74.04
55044;BME280;54902;50.420;18.854;2022-09-17T02:00:34;100642.81;;;11.35;73.88
55044;BME280;54902;50.420;18.854;2022-09-17T02:00:55;100647.30;;;11.36;73.81
55044;BME280;54902;50.420;18.854;2022-09-17T02:01:16;100645.56;;;11.35;73.82
55044;BME280;54902;50.420;18.854;2022-09-17T02:01:37;100645.56;;;11.35;73.83
55044;BME280;54902;50.420;18.854;2022-09-17T02:01:59;100634.59;;;11.35;73.69
55044;BME280;54902;50.420;18.854;2022-09-17T02:02:53;100636.32;;;11.36;73.84
55044;BME280;54902;50.420;18.854;2022-09-17T02:03:21;100638.36;;;11.34;74.01
55044;BME280;54902;50.420;18.854;2022-09-17T02:03:53;100628.24;;;11.35;73.77
55044;BME280;54902;50.420;18.854;2022-09-17T02:04:15;100642.97;;;11.34;73.83
55044;BME280;54902;50.420;18.854;2022-09-17T02:04:43;100636.63;;;11.33;73.87
55044;BME280;54902;50.420;18.854;2022-09-17T02:05:08;100636.63;;;11.33;73.94
55044;BME280;54902;50.420;18.854;2022-09-17T02:05:38;100634.59;;;11.35;73.86
55044;BME280;54902;50.420;18.854;2022-09-17T02:05:59;100626.50;;;11.34;73.77
55044;BME280;54902;50.420;18.854;2022-09-17T02:06:21;100631.13;;;11.33;73.98
55044;BME280;54902;50.420;18.854;2022-09-17T02:06:43;100634.73;;;11.34;73.81
55044;BME280;54902;50.420;18.854;2022-09-17T02:07:08;100635.77;;;11.33;73.86
55044;BME280;54902;50.420;18.854;2022-09-17T02:07:26;100630.28;;;11.33;73.69
55044;BME280;54902;50.420;18.854;2022-09-17T02:07:49;100631.99;;;11.34;73.78
55044;BME280;54902;50.420;18.854;2022-09-17T02:08:14;100633.89;;;11.33;73.93
55044;BME280;54902;50.420;18.854;2022-09-17T02:08:40;100635.62;;;11.34;73.66